Soaring Guidance
Issued by NWS Reno, NV

Home | Current Version | Previous Version | Text Only | Print | Product List | Glossary On
Versions: 1 2 3 4 5 6 7
000
UXUS97 KREV 221352
SRGREV

SOARING FORECAST
NATIONAL WEATHER SERVICE - RENO NV
700 AM PDT SUN OCT 22 2017

THIS SOARING FORECAST IS FOR THE EASTERN SIERRA AND WESTERN NEVADA
WITH SPECIFIC INDICES FOR THE GREATER RENO AREA.

THIS FORECAST IS PREPARED DAILY BY 700 AM AND IS NOT UPDATED.

FOR CURRENT FLIGHT CONDITIONS...FORECASTS...AND ADVISORIES...ACCESS
YOUR LOCAL BRIEFING OUTLET OR FLIGHT SERVICE STATION.

*******************************************************************
FORECASTED LOCAL INDICES FOR RENO:        TODAY     YESTERDAY
FORECASTED MAX TEMP AT RENO (DEG F).....     65          62
FORECASTED TRIGGER TEMPERATURE (DEG F)..     49          49
   EXCEEDED YESTERDAY BY 1155 AM PDT
FORECASTED MAXIMUM ALTITUDE (FT MSL)....  12600       12600
FORECASTED SOARING INDEX (FPM)..........    528         528
FORECASTED K-INDEX.........VALID 18Z....     -9          17
FORECASTED K-INDEX.........VALID 00Z....     10          26
FORECASTED LIFTED INDEX....VALID 18Z....      7           6
FORECASTED LIFTED INDEX....VALID 00Z....      4           6

AFTERNOON WINDS ALOFT FORECAST
MSL (FT) WIND/TEMP
9000  3213/+10
10000 3214/+08
12000 3317/+04
14000 2919/+00
16000 2821/-05
18000 2827/-10
24000 2830/-21
30000 3033/-38
34000 3032/-49
39000 3038/-60

SLIDE MOUNTAIN DATA:
     DATE       TIME     TEMP  DEWPT   RH         WIND (MPH)
                        (F)   (F)           | DIR  SPEED GUST
2017-10-22    05:50      41    15     21    | 015    6   13
2017-10-22    05:30      41    15     22    | 015    5   12
2017-10-22    05:20      41    15     21    | 027    5   14
2017-10-22    05:00      41    15     22    | 344    6   12

SIERRA CREST 8700 FT DATA:
   DATE     TIME  TEMP  RH         WIND
                            DIR   SPEED   GUST
2017-10-22 0600   39   28   206     19     24
2017-10-22 0545   39   30   227     19     25
2017-10-22 0530   39   31   226     19     21
2017-10-22 0515   39   31   229     19     23

RENO TAF FORECAST:
KRNO 221130Z 2212/2312 VRB03KT P6SM SKC
     FM222100 35006KT P6SM SCT200
     FM230200 VRB03KT P6SM SKC

CARSON CITY TAF FORECAST:
KCXP 221130Z 2212/2312 VRB03KT P6SM SKC
     FM222100 04008KT P6SM SCT200
     FM230200 VRB03KT P6SM SKC

OUTLOOK FOR THE RENO-CARSON CITY-MINDEN AREA:
.MONDAY...SUNNY. HIGHS 72 TO 77. LIGHT WINDS BECOMING EAST AROUND
10 MPH IN THE AFTERNOON.

SUNRISE AND SUNSET
OCTOBER 22 2017.......SUNRISE   717 AM PDT   SUNSET   610 PM PDT
OCTOBER 23 2017.......SUNRISE   718 AM PDT   SUNSET   608 PM PDT



USA.gov is the U.S. government's official web portal to all federal, state and local government web resources and services.